Time;durP1;ratioP1;P1;durP2;ratioP2;P2;SDS_P1;SDS_P2;PMS_P1;PMS_P2;Temp;Humidity;BMP_temperature;BMP_pressure;BME280_temperature;BME280_humidity;BME280_pressure;Samples;Min_cycle;Max_cycle;Signal;HPM_P1;HPM_P2
2022/07/25 00:02:02;;;;;;;6.07;4.60;;;;;;;25.90;47.67;100991.09;5094789;28;20044;-63
2022/07/25 00:04:33;;;;;;;8.48;5.15;;;;;;;25.88;47.74;100987.03;5096736;28;20044;-63
2022/07/25 00:07:02;;;;;;;6.43;4.90;;;;;;;25.85;47.81;100984.91;5095305;28;20044;-63
2022/07/25 00:09:30;;;;;;;9.77;4.57;;;;;;;25.85;47.82;100982.16;5102899;28;20048;-63
2022/07/25 00:11:58;;;;;;;6.53;5.15;;;;;;;25.82;47.73;100977.31;5093227;28;20044;-63
2022/07/25 00:14:27;;;;;;;5.93;4.75;;;;;;;25.81;47.76;100976.50;5102196;28;20073;-63
2022/07/25 00:16:55;;;;;;;5.75;4.45;;;;;;;25.80;47.82;100968.56;5089539;28;20053;-64
2022/07/25 00:19:23;;;;;;;5.22;4.57;;;;;;;25.74;47.73;100950.56;5102785;28;20067;-64
2022/07/25 00:21:50;;;;;;;7.78;5.32;;;;;;;25.74;47.73;100962.38;5102167;28;20514;-63
2022/07/25 00:24:18;;;;;;;6.32;5.05;;;;;;;25.73;47.87;100958.00;5102992;28;20073;-63
2022/07/25 00:26:46;;;;;;;6.28;4.85;;;;;;;25.72;47.99;100955.56;5098226;28;20051;-64
2022/07/25 00:29:14;;;;;;;6.53;5.13;;;;;;;25.69;48.00;100957.03;5101981;28;20052;-64
2022/07/25 00:31:43;;;;;;;8.30;4.47;;;;;;;25.67;47.90;100945.53;5098487;28;20072;-63
2022/07/25 00:34:10;;;;;;;7.05;4.32;;;;;;;25.65;48.01;100950.53;5101611;28;20052;-63
2022/07/25 00:36:38;;;;;;;6.25;4.78;;;;;;;25.63;47.90;100950.03;5099084;28;20048;-63
2022/07/25 00:39:06;;;;;;;5.55;4.38;;;;;;;25.60;47.93;100945.97;5101884;28;20821;-63
2022/07/25 00:41:34;;;;;;;6.22;4.60;;;;;;;25.58;48.00;100941.91;5099347;28;20048;-64
2022/07/25 00:44:02;;;;;;;6.22;4.88;;;;;;;25.56;47.90;100936.72;5096040;28;20043;-64
2022/07/25 00:46:30;;;;;;;5.90;4.90;;;;;;;25.53;47.91;100937.38;5099966;28;20081;-63
2022/07/25 00:48:59;;;;;;;6.38;4.45;;;;;;;25.52;47.88;100943.19;5096792;28;20075;-63
2022/07/25 00:51:27;;;;;;;6.28;4.70;;;;;;;25.49;47.98;100930.06;5100870;28;20058;-63
2022/07/25 00:53:57;;;;;;;5.88;4.80;;;;;;;25.45;47.97;100921.66;5109141;28;20075;-63
2022/07/25 00:56:25;;;;;;;5.60;4.88;;;;;;;25.46;47.90;100925.22;5100188;28;20052;-62
2022/07/25 00:58:52;;;;;;;6.20;4.63;;;;;;;25.44;48.20;100921.97;5106534;28;20044;-62
2022/07/25 01:01:20;;;;;;;5.38;4.35;;;;;;;25.41;48.13;100920.66;5107194;28;20052;-63
2022/07/25 01:03:48;;;;;;;6.18;4.80;;;;;;;25.41;47.93;100928.09;5104227;28;20082;-63
2022/07/25 01:06:17;;;;;;;6.18;4.88;;;;;;;25.37;48.03;100922.44;5101058;28;20072;-63
2022/07/25 01:08:46;;;;;;;7.43;5.00;;;;;;;25.35;47.98;100913.69;5101633;28;20056;-63
2022/07/25 01:11:14;;;;;;;5.45;4.78;;;;;;;25.27;48.10;100889.72;5106122;28;20055;-63
2022/07/25 01:13:42;;;;;;;8.32;5.18;;;;;;;25.32;48.09;100902.50;5098867;28;20051;-63
2022/07/25 01:16:09;;;;;;;5.07;4.45;;;;;;;25.30;47.91;100898.13;5108476;28;20071;-63
2022/07/25 01:18:37;;;;;;;5.45;4.85;;;;;;;25.28;48.16;100891.34;5099797;28;20055;-63
2022/07/25 01:21:07;;;;;;;5.22;4.43;;;;;;;25.26;48.10;100886.16;5106351;28;20059;-63
2022/07/25 01:23:34;;;;;;;5.63;4.80;;;;;;;25.25;47.88;100884.53;5098944;28;20086;-63
2022/07/25 01:26:02;;;;;;;7.47;4.75;;;;;;;25.24;48.17;100885.66;5105074;28;20536;-63
2022/07/25 01:28:30;;;;;;;7.22;5.03;;;;;;;25.23;48.01;100881.28;5096033;28;20083;-63
2022/07/25 01:30:58;;;;;;;5.15;4.57;;;;;;;25.22;47.89;100885.16;5102661;28;20048;-62
2022/07/25 01:33:26;;;;;;;5.03;4.40;;;;;;;25.20;48.01;100881.91;5110801;28;20040;-62
2022/07/25 01:35:53;;;;;;;5.85;4.78;;;;;;;25.20;47.84;100881.13;5091646;28;20072;-62
2022/07/25 01:38:22;;;;;;;7.38;4.75;;;;;;;25.19;47.81;100879.50;5105337;28;20047;-62
2022/07/25 01:40:50;;;;;;;6.50;4.78;;;;;;;25.17;48.05;100877.06;5104958;28;20048;-64
2022/07/25 01:43:18;;;;;;;5.55;4.30;;;;;;;25.17;47.90;100877.06;5103343;28;20079;-64
2022/07/25 01:45:46;;;;;;;6.25;4.63;;;;;;;25.15;48.08;100876.56;5098595;28;20134;-64
2022/07/25 01:48:14;;;;;;;6.07;4.85;;;;;;;25.14;48.09;100869.44;5099410;28;20112;-63
2022/07/25 01:50:43;;;;;;;6.38;4.80;;;;;;;25.13;47.71;100870.56;5102192;28;20061;-63
2022/07/25 01:53:11;;;;;;;6.47;5.13;;;;;;;25.12;47.96;100865.41;5102466;28;20048;-63
2022/07/25 01:55:40;;;;;;;7.38;4.60;;;;;;;25.11;47.93;100858.28;5097198;28;20068;-64
2022/07/25 01:58:08;;;;;;;5.90;4.80;;;;;;;25.08;47.83;100848.72;5103922;28;20456;-61
2022/07/25 02:00:36;;;;;;;6.50;4.72;;;;;;;25.08;47.77;100847.91;5098119;28;20055;-63
2022/07/25 02:05:49;;;;;;;6.45;4.80;;;;;;;25.05;47.75;100843.03;5093595;28;20044;-63
2022/07/25 02:08:16;;;;;;;5.90;4.68;;;;;;;25.04;47.75;100838.69;5104556;28;20143;-63
2022/07/25 02:10:46;;;;;;;5.80;4.40;;;;;;;25.02;47.72;100832.69;5100592;28;20044;-63
2022/07/25 02:13:13;;;;;;;5.97;4.90;;;;;;;25.01;47.66;100836.56;5106434;28;20079;-63
2022/07/25 02:15:41;;;;;;;6.95;4.35;;;;;;;24.96;47.62;100832.84;5101281;28;20048;-64
2022/07/25 02:18:09;;;;;;;6.70;4.93;;;;;;;24.95;47.65;100835.88;5094998;28;20044;-64
2022/07/25 02:20:37;;;;;;;5.80;4.70;;;;;;;24.93;47.86;100833.44;5100128;28;20055;-63
2022/07/25 02:23:05;;;;;;;7.35;4.60;;;;;;;24.89;47.55;100823.41;5098363;28;20076;-64
2022/07/25 02:25:34;;;;;;;8.95;5.30;;;;;;;24.87;47.61;100826.47;5095142;28;20076;-64
2022/07/25 02:28:03;;;;;;;6.45;4.30;;;;;;;24.86;47.68;100830.34;5102321;28;20052;-62
2022/07/25 02:30:31;;;;;;;5.63;4.55;;;;;;;24.83;47.85;100828.22;5096669;28;20090;-63
2022/07/25 02:32:59;;;;;;;5.63;4.72;;;;;;;24.82;47.83;100823.84;5104328;28;20040;-62
2022/07/25 02:35:27;;;;;;;5.53;4.50;;;;;;;24.77;48.04;100825.94;5096005;28;20059;-62
2022/07/25 02:37:55;;;;;;;6.78;4.95;;;;;;;24.79;47.64;100812.69;5106115;28;20040;-63
2022/07/25 02:40:23;;;;;;;6.07;4.45;;;;;;;24.78;47.72;100816.56;5099386;28;20052;-63
2022/07/25 02:42:50;;;;;;;6.47;5.32;;;;;;;24.75;47.91;100808.94;5105880;28;20055;-62
2022/07/25 02:45:20;;;;;;;7.90;4.75;;;;;;;24.74;47.69;100807.31;5096902;28;20083;-64
2022/07/25 02:47:48;;;;;;;6.35;5.20;;;;;;;24.71;47.74;100807.97;5101117;28;20051;-63
2022/07/25 02:50:16;;;;;;;6.43;5.05;;;;;;;24.69;47.72;100805.53;5094609;28;20052;-63
2022/07/25 02:52:44;;;;;;;6.50;5.00;;;;;;;24.66;47.56;100806.97;5086506;28;20481;-63
2022/07/25 02:55:12;;;;;;;4.57;4.15;;;;;;;24.65;47.70;100807.28;5096537;28;20071;-62
2022/07/25 02:57:39;;;;;;;6.78;4.95;;;;;;;24.64;48.03;100800.19;5100205;28;20462;-63
2022/07/25 03:00:09;;;;;;;5.28;4.35;;;;;;;24.63;47.80;100804.06;5093267;28;20045;-63
2022/07/25 03:02:38;;;;;;;5.82;4.80;;;;;;;24.61;47.70;100806.31;5088849;28;20067;-63
2022/07/25 03:05:07;;;;;;;6.40;4.70;;;;;;;24.58;47.76;100804.19;5090030;28;20070;-63
2022/07/25 03:07:34;;;;;;;8.18;5.03;;;;;;;24.57;47.93;100795.13;5107715;28;20045;-63
2022/07/25 03:10:03;;;;;;;6.65;4.85;;;;;;;24.56;47.60;100795.44;5102628;28;20040;-63
2022/07/25 03:12:38;;;;;;;7.90;4.73;;;;;;;24.52;47.75;100775.22;5086183;28;20106;-62
2022/07/25 03:15:07;;;;;;;9.68;5.00;;;;;;;24.55;47.53;100780.09;5091199;28;20058;-62
2022/07/25 03:17:35;;;;;;;5.95;4.93;;;;;;;24.53;47.99;100776.84;5097220;28;20049;-63
2022/07/25 03:20:05;;;;;;;6.20;4.43;;;;;;;24.54;47.48;100776.53;5099974;28;20080;-63
2022/07/25 03:22:33;;;;;;;6.03;4.93;;;;;;;24.52;47.75;100769.75;5101055;28;20082;-63
2022/07/25 03:25:01;;;;;;;6.25;4.60;;;;;;;24.52;47.49;100776.03;5103737;28;20048;-63
2022/07/25 03:27:29;;;;;;;6.47;4.68;;;;;;;24.51;47.81;100779.91;5103301;28;20052;-61
2022/07/25 03:29:58;;;;;;;7.55;5.00;;;;;;;24.50;47.52;100780.22;5099148;28;20048;-62
2022/07/25 03:32:26;;;;;;;5.95;4.55;;;;;;;24.48;47.63;100766.81;5100280;28;20067;-63
2022/07/25 03:34:54;;;;;;;6.45;4.90;;;;;;;24.48;47.59;100780.56;5099184;28;20091;-63
2022/07/25 03:37:23;;;;;;;6.88;5.03;;;;;;;24.47;47.79;100781.69;5099228;28;20072;-63
2022/07/25 03:39:50;;;;;;;5.65;4.38;;;;;;;24.46;47.80;100769.06;5099312;28;20083;-63
2022/07/25 03:42:19;;;;;;;6.45;4.72;;;;;;;24.43;47.83;100772.44;5098893;28;20048;-64
2022/07/25 03:44:53;;;;;;;5.95;4.70;;;;;;;24.43;47.83;100764.19;5097272;28;20444;-63
2022/07/25 03:47:20;;;;;;;5.85;4.75;;;;;;;24.43;47.88;100772.44;5097014;28;20051;-63
2022/07/25 03:49:48;;;;;;;9.30;4.82;;;;;;;24.42;47.35;100775.50;5102670;28;20072;-63
2022/07/25 03:52:16;;;;;;;5.35;4.82;;;;;;;24.39;47.79;100768.72;5093324;28;20048;-62
2022/07/25 03:54:45;;;;;;;5.90;5.13;;;;;;;24.39;48.01;100767.91;5103891;28;20048;-64
2022/07/25 03:57:13;;;;;;;5.72;5.00;;;;;;;24.37;47.62;100765.47;5093983;28;20068;-62
2022/07/25 03:59:40;;;;;;;6.20;4.55;;;;;;;24.36;47.47;100769.34;5099532;28;20043;-62
2022/07/25 04:02:08;;;;;;;5.57;4.50;;;;;;;24.35;48.05;100764.97;5098749;28;20089;-63
2022/07/25 04:04:36;;;;;;;6.50;5.07;;;;;;;24.34;47.93;100749.63;5096113;28;20481;-64
2022/07/25 04:07:04;;;;;;;6.65;5.10;;;;;;;24.31;47.63;100747.50;5098095;28;20100;-62
2022/07/25 04:09:31;;;;;;;6.30;5.60;;;;;;;24.31;47.55;100753.00;5101850;28;20060;-63
2022/07/25 04:12:01;;;;;;;5.75;4.68;;;;;;;24.28;47.61;100748.94;5103530;28;20043;-63
2022/07/25 04:14:29;;;;;;;8.38;4.60;;;;;;;24.23;48.02;100753.75;5102027;28;20047;-64
2022/07/25 04:16:57;;;;;;;6.32;5.20;;;;;;;24.23;48.03;100757.31;5092411;28;20466;-63
2022/07/25 04:19:25;;;;;;;6.05;5.07;;;;;;;24.22;48.05;100752.16;5100070;28;20150;-62
2022/07/25 04:21:55;;;;;;;6.03;4.55;;;;;;;24.20;48.07;100762.63;5095672;28;20048;-62
2022/07/25 04:24:23;;;;;;;7.00;5.43;;;;;;;24.19;47.87;100755.53;5108294;28;20092;-62
2022/07/25 04:26:51;;;;;;;6.88;5.30;;;;;;;24.16;47.93;100754.22;5100600;28;20048;-62
2022/07/25 04:29:20;;;;;;;6.38;4.90;;;;;;;24.16;47.81;100756.16;5100207;28;20048;-62
2022/07/25 04:31:47;;;;;;;6.78;5.25;;;;;;;24.15;47.76;100751.78;5106734;28;20044;-62
2022/07/25 04:34:15;;;;;;;5.82;5.05;;;;;;;24.10;47.84;100752.72;5106487;28;20052;-62
2022/07/25 04:36:43;;;;;;;8.35;5.55;;;;;;;24.04;48.20;100754.00;5099950;28;20072;-63
2022/07/25 04:39:11;;;;;;;6.35;4.90;;;;;;;24.09;47.81;100755.78;5104674;28;20462;-63
2022/07/25 04:41:39;;;;;;;8.63;5.10;;;;;;;24.10;48.18;100757.41;5104087;28;20052;-63
2022/07/25 04:44:07;;;;;;;6.28;4.43;;;;;;;24.08;48.24;100765.97;5102559;28;20048;-63
2022/07/25 04:46:37;;;;;;;7.82;5.18;;;;;;;24.05;48.18;100763.03;5099007;28;20053;-63
2022/07/25 04:49:04;;;;;;;6.65;5.10;;;;;;;24.04;47.93;100754.00;5085954;28;20124;-63
2022/07/25 04:51:32;;;;;;;5.75;4.68;;;;;;;24.02;47.97;100754.31;5092594;28;20071;-63
2022/07/25 04:54:00;;;;;;;5.75;4.47;;;;;;;24.02;48.42;100754.31;5103835;28;20110;-65
2022/07/25 04:56:28;;;;;;;6.18;4.90;;;;;;;24.02;47.93;100743.31;5085600;28;20056;-63
2022/07/25 04:58:56;;;;;;;6.13;4.72;;;;;;;24.02;48.33;100737.81;4737082;28;10000304;-63
2022/07/25 05:01:28;;;;;;;6.18;4.55;;;;;;;24.01;48.21;100747.19;5100124;28;20047;-63
2022/07/25 05:03:57;;;;;;;7.43;5.10;;;;;;;23.99;48.23;100745.88;5095851;28;20043;-64
2022/07/25 05:06:25;;;;;;;6.60;5.18;;;;;;;23.96;48.18;100750.06;5091887;28;20067;-63
2022/07/25 05:08:53;;;;;;;6.38;5.05;;;;;;;23.94;48.00;100746.00;5096316;28;20162;-64
2022/07/25 05:11:20;;;;;;;7.20;5.20;;;;;;;23.95;48.18;100751.19;5096130;28;20075;-64
2022/07/25 05:13:48;;;;;;;6.55;4.55;;;;;;;23.85;48.01;100725.94;5097737;28;20113;-64
2022/07/25 05:16:16;;;;;;;6.50;5.15;;;;;;;23.94;48.42;100748.75;5094022;28;20090;-63
2022/07/25 05:18:44;;;;;;;6.75;4.53;;;;;;;23.94;48.07;100752.31;5091742;28;20074;-63
2022/07/25 05:21:13;;;;;;;7.13;5.07;;;;;;;23.94;48.25;100754.25;5094585;28;20075;-64
2022/07/25 05:23:41;;;;;;;5.38;4.55;;;;;;;23.92;48.20;100751.81;5097139;28;20083;-63
2022/07/25 05:26:08;;;;;;;6.28;4.65;;;;;;;23.92;48.45;100751.00;5096822;28;20076;-63
2022/07/25 05:28:36;;;;;;;6.88;4.43;;;;;;;23.91;48.31;100747.44;5095539;28;20084;-63
2022/07/25 05:31:05;;;;;;;5.80;4.88;;;;;;;23.91;48.08;100752.94;5097523;28;21017;-65
2022/07/25 05:33:34;;;;;;;5.90;4.88;;;;;;;23.90;48.43;100745.84;5096106;28;20055;-64
2022/07/25 05:36:03;;;;;;;8.02;5.00;;;;;;;23.89;48.14;100748.88;5100525;28;20067;-64
2022/07/25 05:38:33;;;;;;;5.88;4.55;;;;;;;23.92;48.09;100759.25;5104748;28;20089;-65
2022/07/25 05:41:00;;;;;;;5.93;4.10;;;;;;;23.90;48.57;100754.06;5094861;28;20372;-64
2022/07/25 05:43:28;;;;;;;9.43;4.43;;;;;;;23.91;48.31;100757.63;5093986;28;20167;-61
2022/07/25 05:46:01;;;;;;;6.20;4.53;;;;;;;23.91;48.54;100760.38;5101318;28;20086;-62
2022/07/25 05:48:29;;;;;;;7.43;4.82;;;;;;;23.92;48.44;100757.31;5097950;28;20067;-63
2022/07/25 05:50:58;;;;;;;7.22;4.32;;;;;;;23.91;48.03;100752.13;5101304;28;20127;-62
2022/07/25 05:53:26;;;;;;;6.78;4.75;;;;;;;23.91;48.61;100763.91;5100781;28;20052;-63
2022/07/25 05:55:55;;;;;;;6.50;4.72;;;;;;;23.90;48.30;100756.81;5095828;28;20083;-63
2022/07/25 05:58:22;;;;;;;9.82;4.78;;;;;;;23.90;48.60;100764.22;5094216;28;20048;-62
2022/07/25 06:00:56;;;;;;;6.65;5.00;;;;;;;23.88;48.66;100759.06;5104017;28;20088;-64
2022/07/25 06:03:24;;;;;;;8.93;4.50;;;;;;;23.88;48.78;100761.81;5091653;28;20060;-63
2022/07/25 06:05:54;;;;;;;5.32;4.43;;;;;;;23.88;48.47;100766.47;5094953;28;20048;-64
2022/07/25 06:08:22;;;;;;;8.70;4.88;;;;;;;23.88;48.67;100771.97;5091322;28;20116;-62
2022/07/25 06:10:51;;;;;;;7.55;4.50;;;;;;;23.87;48.64;100775.84;5097040;28;20048;-62
2022/07/25 06:13:20;;;;;;;5.85;4.63;;;;;;;23.85;48.94;100776.16;5105029;28;20090;-62
2022/07/25 06:15:50;;;;;;;5.95;4.47;;;;;;;23.85;49.02;100778.09;5104325;28;20064;-62
2022/07/25 06:18:18;;;;;;;9.43;4.00;;;;;;;23.85;49.05;100778.09;5108114;28;20118;-62
2022/07/25 06:20:45;;;;;;;5.65;3.90;;;;;;;23.84;48.75;100776.47;5095844;28;20049;-64
2022/07/25 06:23:13;;;;;;;7.28;4.60;;;;;;;23.83;49.26;100783.06;5105038;28;20076;-63
2022/07/25 06:25:41;;;;;;;6.18;4.40;;;;;;;23.80;49.06;100784.50;5095396;28;20052;-62
2022/07/25 06:28:17;;;;;;;7.50;4.82;;;;;;;23.79;49.13;100784.81;5099510;28;20051;-63
2022/07/25 06:30:47;;;;;;;4.82;4.15;;;;;;;23.80;49.22;100786.44;5094221;28;20072;-64
2022/07/25 06:33:14;;;;;;;8.02;5.40;;;;;;;23.78;49.35;100788.69;5093459;28;20048;-61
2022/07/25 06:35:42;;;;;;;6.47;4.18;;;;;;;23.77;48.97;100785.13;5103479;28;20051;-64
2022/07/25 06:38:10;;;;;;;7.20;3.83;;;;;;;23.77;49.25;100789.81;5102588;28;20501;-63
2022/07/25 06:40:38;;;;;;;6.55;4.10;;;;;;;23.86;50.06;100780.53;5106523;28;20052;-62
2022/07/25 06:43:05;;;;;;;6.43;4.32;;;;;;;23.83;48.97;100791.31;5093550;28;20056;-63
2022/07/25 06:45:33;;;;;;;9.60;3.95;;;;;;;23.80;49.04;100798.22;5087342;28;20525;-64
2022/07/25 06:48:03;;;;;;;6.13;3.92;;;;;;;23.78;49.08;100791.44;5107131;28;20106;-64
2022/07/25 06:50:31;;;;;;;6.72;4.28;;;;;;;23.77;49.04;100795.31;4736532;28;9999752;-63
2022/07/25 06:52:58;;;;;;;8.60;4.10;;;;;;;23.75;49.68;100795.63;5093539;28;20071;-62
2022/07/25 06:55:26;;;;;;;6.65;3.92;;;;;;;23.76;49.74;100805.47;5098217;28;20049;-61
2022/07/25 06:57:54;;;;;;;4.93;3.45;;;;;;;23.77;49.80;100793.38;5106504;28;20094;-62
2022/07/25 07:00:22;;;;;;;6.82;3.70;;;;;;;23.76;49.63;100788.19;5105633;28;20043;-62
2022/07/25 07:02:52;;;;;;;6.03;3.97;;;;;;;23.74;49.42;100785.75;5093480;28;20076;-63
2022/07/25 07:05:21;;;;;;;4.90;3.67;;;;;;;23.73;49.77;100783.31;5097643;28;20078;-62
2022/07/25 07:07:49;;;;;;;4.70;3.33;;;;;;;23.73;49.32;100784.13;5103698;28;20069;-62
2022/07/25 07:10:18;;;;;;;6.43;3.03;;;;;;;23.72;49.81;100781.69;5100818;28;20481;-63
2022/07/25 07:12:46;;;;;;;5.55;3.35;;;;;;;23.72;49.73;100778.97;5098145;28;20075;-63
2022/07/25 07:15:14;;;;;;;5.72;3.58;;;;;;;23.72;50.00;100784.44;5090237;28;20051;-63
2022/07/25 07:17:42;;;;;;;6.65;3.35;;;;;;;23.71;49.85;100783.63;5094790;28;20078;-63
2022/07/25 07:20:12;;;;;;;4.47;3.30;;;;;;;23.72;49.74;100792.69;5097936;28;20048;-63
2022/07/25 07:22:45;;;;;;;5.35;3.63;;;;;;;23.68;49.81;100770.53;5103171;28;20432;-63
2022/07/25 07:25:14;;;;;;;4.00;2.80;;;;;;;23.66;49.78;100778.28;5094973;28;20046;-63
2022/07/25 07:27:43;;;;;;;7.50;3.47;;;;;;;23.74;50.00;100793.19;5091727;28;20044;-63
2022/07/25 07:30:13;;;;;;;4.90;3.08;;;;;;;23.73;49.99;100784.13;5101837;28;20052;-63
2022/07/25 07:32:42;;;;;;;6.43;3.08;;;;;;;23.72;50.03;100787.19;5109340;28;20052;-64
2022/07/25 07:35:11;;;;;;;7.28;3.20;;;;;;;23.74;50.17;100801.41;5105574;28;20051;-63
2022/07/25 07:37:39;;;;;;;5.05;3.00;;;;;;;23.73;49.97;100797.84;5093431;28;20052;-63
2022/07/25 07:40:13;;;;;;;12.38;3.00;;;;;;;23.74;49.99;100799.47;5089438;28;20479;-63
2022/07/25 07:42:47;;;;;;;5.40;2.72;;;;;;;23.75;49.88;100806.59;5093019;28;20048;-63
2022/07/25 07:45:16;;;;;;;6.78;3.25;;;;;;;23.74;49.84;100804.97;5097603;28;20147;-63
2022/07/25 07:47:46;;;;;;;7.45;2.72;;;;;;;23.76;50.26;100801.91;5093845;28;20079;-63
2022/07/25 07:50:16;;;;;;;4.93;3.13;;;;;;;23.75;50.45;100795.63;5102316;28;20044;-64
2022/07/25 07:52:45;;;;;;;7.60;2.67;;;;;;;23.77;50.05;100809.03;5099434;28;20052;-64
2022/07/25 07:58:00;;;;;;;4.80;2.85;;;;;;;23.79;50.76;100796.63;5109161;28;20048;-64
2022/07/25 08:00:29;;;;;;;6.30;2.60;;;;;;;23.80;50.45;100800.97;5107245;28;20059;-64
2022/07/25 08:02:59;;;;;;;4.88;2.38;;;;;;;23.82;50.88;100803.41;5105376;28;20052;-64
2022/07/25 08:05:31;;;;;;;6.32;2.70;;;;;;;23.85;50.91;100791.81;5112743;28;20058;-64
2022/07/25 08:07:59;;;;;;;6.32;2.50;;;;;;;23.86;51.16;100794.25;5107159;28;20036;-64
2022/07/25 08:10:30;;;;;;;5.45;2.58;;;;;;;23.86;51.04;100786.00;5112416;28;20076;-65
2022/07/25 08:12:58;;;;;;;5.60;2.40;;;;;;;23.88;51.21;100792.00;5098694;28;20055;-64
2022/07/25 08:15:26;;;;;;;6.68;2.40;;;;;;;23.90;50.95;100798.00;5102886;28;20052;-64
2022/07/25 08:17:55;;;;;;;7.97;2.30;;;;;;;23.91;51.06;100801.53;5105617;28;20056;-64
2022/07/25 08:20:23;;;;;;;6.05;2.53;;;;;;;23.92;51.30;100805.91;5111194;28;20047;-64
2022/07/25 08:23:06;;;;;;;4.43;2.38;;;;;;;23.91;51.35;100805.09;5104925;28;20067;-64
2022/07/25 08:25:35;;;;;;;5.53;2.65;;;;;;;23.92;51.87;100811.41;5107512;28;20059;-64
2022/07/25 08:28:05;;;;;;;5.53;2.13;;;;;;;23.90;52.42;100808.97;5116849;28;20067;-64
2022/07/25 08:30:34;;;;;;;5.97;2.15;;;;;;;23.86;52.41;100804.41;5119767;28;20039;-64
2022/07/25 08:33:05;;;;;;;6.93;2.08;;;;;;;23.90;53.03;100817.19;5108422;28;20437;-64
2022/07/25 08:35:34;;;;;;;7.28;1.98;;;;;;;23.92;52.71;100816.88;5110567;28;20049;-64
2022/07/25 08:38:03;;;;;;;4.82;1.77;;;;;;;23.92;52.29;100823.19;5099034;28;20058;-63
2022/07/25 08:40:33;;;;;;;3.65;2.03;;;;;;;23.89;52.46;100828.50;5108364;28;20044;-63
2022/07/25 08:43:04;;;;;;;5.78;1.90;;;;;;;23.98;52.61;100824.69;5100156;28;20074;-63
2022/07/25 08:45:33;;;;;;;7.18;1.70;;;;;;;23.98;52.57;100821.13;5111369;28;20083;-63
2022/07/25 08:48:01;;;;;;;3.72;2.05;;;;;;;24.02;53.08;100811.97;5112896;28;20493;-63
2022/07/25 08:50:29;;;;;;;6.75;1.70;;;;;;;24.05;52.63;100806.97;5105187;28;20048;-63
2022/07/25 08:52:57;;;;;;;6.55;2.20;;;;;;;24.06;53.19;100817.63;5107556;28;20063;-63
2022/07/25 08:55:46;;;;;;;3.78;1.70;;;;;;;24.08;53.16;100814.56;5118518;28;20059;-64
2022/07/25 08:58:17;;;;;;;2.05;1.45;;;;;;;24.08;53.17;100815.38;5094294;28;20040;-64
2022/07/25 09:00:45;;;;;;;6.40;1.80;;;;;;;24.10;52.94;100817.81;5102875;28;20045;-64
2022/07/25 09:03:13;;;;;;;4.57;1.95;;;;;;;24.12;53.24;100808.16;5107823;28;20059;-63
2022/07/25 09:05:42;;;;;;;7.07;1.83;;;;;;;24.12;53.21;100815.56;5119068;28;20112;-64
2022/07/25 09:08:13;;;;;;;4.80;2.00;;;;;;;24.14;53.29;100807.84;5106335;28;20060;-63
2022/07/25 09:10:46;;;;;;;5.00;1.50;;;;;;;24.15;53.62;100812.19;5120248;28;20461;-63
2022/07/25 09:13:16;;;;;;;6.90;1.63;;;;;;;24.17;53.28;100819.00;5105905;28;20064;-64
2022/07/25 09:15:46;;;;;;;3.47;1.50;;;;;;;24.19;53.59;100826.94;5107281;28;20500;-64
2022/07/25 09:18:18;;;;;;;4.47;1.60;;;;;;;24.22;53.33;100823.56;5115259;28;20386;-63
2022/07/25 09:20:48;;;;;;;6.72;1.98;;;;;;;24.23;53.78;100814.19;5104841;28;20470;-63
2022/07/25 09:23:29;;;;;;;4.22;1.30;;;;;;;24.27;53.22;100824.22;5106466;28;20043;-63
2022/07/25 09:26:04;;;;;;;5.63;1.70;;;;;;;24.29;53.50;100824.72;5106587;28;20043;-63
2022/07/25 09:28:41;;;;;;;4.13;1.50;;;;;;;24.31;53.52;100827.97;5108492;28;20079;-63
2022/07/25 09:31:09;;;;;;;4.75;1.40;;;;;;;24.35;53.72;100833.66;5108988;28;20356;-63
2022/07/25 09:33:46;;;;;;;4.45;1.33;;;;;;;24.36;53.79;100849.00;5114121;28;20135;-63
2022/07/25 09:36:14;;;;;;;3.15;1.70;;;;;;;24.39;53.82;100845.63;5107333;28;20052;-62
2022/07/25 09:38:52;;;;;;;7.63;1.73;;;;;;;24.41;53.99;100856.31;5110951;28;20048;-63
2022/07/25 09:41:20;;;;;;;9.93;1.42;;;;;;;24.44;54.07;100861.16;5104753;28;20048;-63
2022/07/25 09:43:49;;;;;;;5.32;1.85;;;;;;;24.47;53.56;100866.03;5101168;28;20056;-63
2022/07/25 09:46:17;;;;;;;5.93;2.33;;;;;;;24.47;53.51;100861.34;5107872;28;20923;-63
2022/07/25 09:48:45;;;;;;;4.47;2.20;;;;;;;24.46;53.40;100858.91;5112172;28;20052;-62
2022/07/25 09:51:13;;;;;;;4.18;1.73;;;;;;;24.50;53.35;100866.22;5100019;28;20218;-65
2022/07/25 09:53:41;;;;;;;3.50;1.35;;;;;;;24.52;53.36;100863.16;5103019;28;20366;-64
2022/07/25 09:56:09;;;;;;;7.07;2.08;;;;;;;24.52;53.33;100855.72;5101746;28;20063;-63
2022/07/25 09:58:37;;;;;;;3.35;1.48;;;;;;;24.54;53.19;100860.91;5097213;28;20758;-64
2022/07/25 10:01:07;;;;;;;4.85;1.85;;;;;;;24.55;53.22;100865.28;5100616;28;20048;-63
2022/07/25 10:03:48;;;;;;;3.63;1.70;;;;;;;24.52;52.97;100852.97;5106545;28;20424;-64
2022/07/25 10:06:21;;;;;;;4.75;1.45;;;;;;;24.58;53.15;100867.41;5096833;28;20040;-64
2022/07/25 10:08:50;;;;;;;5.90;1.67;;;;;;;24.60;52.96;100863.22;5098998;28;20052;-64
2022/07/25 10:11:20;;;;;;;5.18;1.98;;;;;;;24.59;52.92;100875.31;5116070;28;20081;-63
2022/07/25 10:13:48;;;;;;;2.53;1.40;;;;;;;24.62;53.14;100876.63;5103509;28;20074;-64
2022/07/25 10:16:19;;;;;;;2.83;1.33;;;;;;;24.62;52.96;100873.88;5096537;28;20052;-63
2022/07/25 10:18:52;;;;;;;5.38;2.05;;;;;;;24.63;52.84;100865.31;5106067;28;20161;-63
2022/07/25 10:21:21;;;;;;;3.75;1.50;;;;;;;24.62;52.75;100860.16;5102741;28;20063;-63
2022/07/25 10:24:03;;;;;;;3.70;1.70;;;;;;;24.69;52.58;100865.19;5107209;28;20040;-64
2022/07/25 10:26:34;;;;;;;5.35;2.25;;;;;;;24.69;52.81;100863.25;5109804;28;20177;-64
2022/07/25 10:29:08;;;;;;;5.53;2.00;;;;;;;24.64;52.64;100852.38;5117273;28;20035;-64
2022/07/25 10:31:41;;;;;;;7.93;2.10;;;;;;;24.73;52.17;100869.75;5106468;28;20044;-64
2022/07/25 10:34:28;;;;;;;5.40;1.85;;;;;;;24.74;52.07;100854.88;5108880;28;20064;-63
2022/07/25 10:36:56;;;;;;;5.43;1.83;;;;;;;24.77;52.24;100861.66;5109640;28;20048;-63
2022/07/25 10:39:24;;;;;;;3.03;1.60;;;;;;;24.78;52.40;100855.84;5111058;28;20051;-64
2022/07/25 10:41:53;;;;;;;4.38;1.88;;;;;;;24.81;52.28;100859.91;5104512;28;20068;-64
2022/07/25 10:44:21;;;;;;;10.00;2.20;;;;;;;24.78;51.79;100850.34;5109824;28;20114;-64
2022/07/25 10:46:51;;;;;;;4.22;1.70;;;;;;;24.85;51.87;100861.72;5102566;28;20048;-63
2022/07/25 10:49:20;;;;;;;4.70;1.60;;;;;;;24.88;51.75;100852.81;5106242;28;20048;-63
2022/07/25 10:51:59;;;;;;;5.13;1.70;;;;;;;24.86;51.59;100868.03;5119906;28;20044;-62
2022/07/25 10:54:33;;;;;;;5.32;1.77;;;;;;;24.93;51.75;100863.69;5099593;28;20065;-63
2022/07/25 10:57:01;;;;;;;8.32;2.08;;;;;;;24.96;50.99;100875.97;4740273;28;10000821;-64
2022/07/25 10:59:32;;;;;;;5.88;2.30;;;;;;;24.94;50.78;100870.81;5091320;28;20048;-63
2022/07/25 11:02:01;;;;;;;2.95;1.45;;;;;;;24.95;50.71;100863.38;5094121;28;20048;-63
2022/07/25 11:04:30;;;;;;;4.10;2.10;;;;;;;24.97;50.63;100872.94;5102264;28;20130;-64
2022/07/25 11:06:58;;;;;;;5.18;2.13;;;;;;;25.02;50.43;100879.44;5100922;28;20048;-64
2022/07/25 11:09:28;;;;;;;4.28;2.00;;;;;;;25.05;50.32;100885.09;5104213;28;20048;-63
2022/07/25 11:11:57;;;;;;;6.05;1.90;;;;;;;25.07;50.10;100882.84;5096667;28;20048;-65
2022/07/25 11:14:31;;;;;;;2.90;1.70;;;;;;;25.08;49.86;100878.97;5102187;28;20051;-62
2022/07/25 11:17:13;;;;;;;3.92;1.85;;;;;;;25.09;49.96;100886.09;5097914;28;20079;-62
2022/07/25 11:19:43;;;;;;;4.05;1.73;;;;;;;24.97;49.88;100872.94;5103831;28;20052;-62
2022/07/25 11:22:12;;;;;;;5.50;2.00;;;;;;;25.07;49.60;100874.59;5093041;28;20067;-62
2022/07/25 11:24:41;;;;;;;3.92;2.33;;;;;;;25.12;49.95;100879.16;5101313;28;20051;-62
2022/07/25 11:27:11;;;;;;;4.50;2.38;;;;;;;25.17;49.78;100893.56;5098365;28;20052;-62
2022/07/25 11:29:40;;;;;;;4.68;1.88;;;;;;;25.20;49.66;100892.94;5091328;28;20052;-63
2022/07/25 11:32:11;;;;;;;3.33;1.90;;;;;;;25.25;49.90;100886.47;5089095;28;20056;-63
2022/07/25 11:34:43;;;;;;;4.13;1.90;;;;;;;25.28;49.93;100891.34;5088434;28;20094;-63
2022/07/25 11:37:13;;;;;;;5.90;2.45;;;;;;;25.33;49.91;100904.13;5097917;28;20928;-62
2022/07/25 11:39:43;;;;;;;6.45;2.00;;;;;;;25.37;49.60;100902.38;5099903;28;20132;-63